createdAt,value
2022-12-01T00:03:17.725Z,41.33
2022-12-01T00:08:19.721Z,48.22
2022-12-01T00:13:21.515Z,44.67
2022-12-01T00:18:23.212Z,40.88
2022-12-01T00:23:25.026Z,40.95
2022-12-01T00:28:26.651Z,45.92
2022-12-01T00:33:28.604Z,39.55
2022-12-01T00:38:30.369Z,42.47
2022-12-01T00:43:32.248Z,49.92
2022-12-01T00:48:33.884Z,43.20
2022-12-01T00:53:35.599Z,37.65
2022-12-01T00:58:37.337Z,40.45
2022-12-01T01:03:39.035Z,47.35
2022-12-01T01:08:40.884Z,41.67
2022-12-01T01:13:42.583Z,39.53
2022-12-01T01:18:44.746Z,40.35
2022-12-01T01:23:47.098Z,39.55
2022-12-01T01:28:49.106Z,48.20
2022-12-01T01:33:51.210Z,43.75
2022-12-01T01:38:53.385Z,41.15
2022-12-01T01:44:00.117Z,45.97
2022-12-01T01:49:08.310Z,39.95
2022-12-01T01:54:17.450Z,42.08
2022-12-01T01:59:26.050Z,44.60
2022-12-01T02:04:28.996Z,36.83
2022-12-01T02:09:30.663Z,38.70
2022-12-01T02:14:41.429Z,50.42
2022-12-01T02:19:46.144Z,42.83
2022-12-01T02:25:17.744Z,47.50
2022-12-01T02:30:47.703Z,43.17
2022-12-01T02:35:56.186Z,42.88
2022-12-01T02:41:04.877Z,39.35
2022-12-01T02:46:13.785Z,44.40
2022-12-01T02:51:35.478Z,39.63
2022-12-01T02:56:37.074Z,37.03
2022-12-01T03:02:00.258Z,40.17
2022-12-01T03:07:24.815Z,49.80
2022-12-01T03:12:44.803Z,37.70
2022-12-01T03:22:54.974Z,41.40
2022-12-01T03:28:20.679Z,44.75
2022-12-01T03:33:39.857Z,41.40
2022-12-01T03:38:45.561Z,46.03
2022-12-01T03:43:53.639Z,48.10
2022-12-01T03:48:55.594Z,46.42
2022-12-01T03:54:10.342Z,54.50
2022-12-01T03:59:13.276Z,43.53
2022-12-01T04:04:15.386Z,55.72
2022-12-01T04:09:17.246Z,47.20
2022-12-01T04:14:18.895Z,45.53
2022-12-01T04:19:20.620Z,47.05
2022-12-01T04:24:22.352Z,43.78
2022-12-01T04:29:23.962Z,55.42
2022-12-01T04:34:25.661Z,55.58
2022-12-01T04:39:27.383Z,66.55
2022-12-01T04:44:34.496Z,61.20
2022-12-01T04:49:37.348Z,56.33
2022-12-01T04:54:38.989Z,54.80
2022-12-01T04:59:40.623Z,56.40
2022-12-01T05:04:42.304Z,57.30
2022-12-01T05:09:44.022Z,52.88
2022-12-01T05:14:45.933Z,53.13
2022-12-01T05:20:06.112Z,46.22
2022-12-01T05:25:08.215Z,47.55
2022-12-01T05:30:10.636Z,51.60
2022-12-01T05:35:12.834Z,52.88
2022-12-01T05:40:14.486Z,44.42
2022-12-01T05:45:16.377Z,63.55
2022-12-01T05:50:18.112Z,57.15
2022-12-01T05:55:19.916Z,55.53
2022-12-01T06:00:21.619Z,47.10
2022-12-01T06:05:23.300Z,54.03
2022-12-01T06:10:24.977Z,52.67
2022-12-01T06:15:27.253Z,50.65
2022-12-01T06:20:28.905Z,57.50
2022-12-01T06:25:30.961Z,54.38
2022-12-01T06:30:32.623Z,47.50
2022-12-01T06:35:35.197Z,52.80
2022-12-01T06:40:36.901Z,53.08
2022-12-01T06:45:38.597Z,54.95
2022-12-01T06:50:40.936Z,50.33
2022-12-01T06:55:42.552Z,53.22
2022-12-01T07:00:47.734Z,56.80
2022-12-01T07:06:01.163Z,54.03
2022-12-01T07:11:08.300Z,54.63
2022-12-01T07:16:10.135Z,60.65
2022-12-01T07:21:14.107Z,71.05
2022-12-01T07:26:17.894Z,63.53
2022-12-01T07:31:22.719Z,55.35
2022-12-01T07:36:24.463Z,56.90
2022-12-01T07:41:26.114Z,67.03
2022-12-01T07:46:28.343Z,67.78
2022-12-01T07:51:30.011Z,52.75
2022-12-01T07:56:32.159Z,63.25
2022-12-01T08:01:33.927Z,63.40
2022-12-01T08:06:35.642Z,62.28
2022-12-01T08:11:37.339Z,61.58
2022-12-01T08:16:39.006Z,68.28
2022-12-01T08:21:40.990Z,68.30
2022-12-01T08:26:45.674Z,68.65
2022-12-01T08:31:47.629Z,60.50
2022-12-01T08:36:49.292Z,61.75
2022-12-01T08:41:50.983Z,54.40
2022-12-01T08:46:52.721Z,65.63
2022-12-01T08:51:56.306Z,65.25
2022-12-01T08:56:58.394Z,61.85
2022-12-01T09:02:05.365Z,55.88
2022-12-01T09:07:10.412Z,61.10
2022-12-01T09:12:12.910Z,67.53
2022-12-01T09:17:15.865Z,65.45
2022-12-01T09:22:17.532Z,56.42
2022-12-01T09:27:19.293Z,64.60
2022-12-01T09:32:20.923Z,68.65
2022-12-01T09:37:22.549Z,54.30
2022-12-01T09:42:30.897Z,58.83
2022-12-01T09:47:37.123Z,63.97
2022-12-01T09:52:44.905Z,67.03
2022-12-01T09:57:52.154Z,66.85
2022-12-01T10:08:02.164Z,64.75
2022-12-01T10:13:15.576Z,62.40
2022-12-01T10:23:47.960Z,57.10
2022-12-01T10:28:49.947Z,57.45
2022-12-01T10:34:01.033Z,63.95
2022-12-01T10:39:04.932Z,63.92
2022-12-01T10:44:07.086Z,58.13
2022-12-01T10:49:14.349Z,62.95
2022-12-01T10:54:16.618Z,56.58
2022-12-01T10:59:32.017Z,61.08
2022-12-01T11:04:45.716Z,54.92
2022-12-01T11:09:59.320Z,59.88
2022-12-01T11:20:24.547Z,55.17
2022-12-01T11:25:26.235Z,56.83
2022-12-01T11:30:30.204Z,58.83
2022-12-01T11:35:34.750Z,58.28
2022-12-01T11:40:50.138Z,58.88
2022-12-01T11:45:52.180Z,60.03
2022-12-01T11:51:10.979Z,52.38
2022-12-01T11:56:12.622Z,56.53
2022-12-01T12:01:22.071Z,54.30
2022-12-01T12:06:39.908Z,63.55
2022-12-01T12:11:47.856Z,51.92
2022-12-01T12:22:42.779Z,50.33
2022-12-01T12:27:58.824Z,58.53
2022-12-01T12:33:25.454Z,53.85
2022-12-01T12:38:46.323Z,53.90
2022-12-01T12:44:13.478Z,56.30
2022-12-01T12:49:25.951Z,50.47
2022-12-01T12:54:37.084Z,62.80
2022-12-01T12:59:40.460Z,52.03
2022-12-01T13:04:54.349Z,64.97
2022-12-01T13:10:01.098Z,56.85
2022-12-01T13:15:11.998Z,64.38
2022-12-01T13:20:17.592Z,58.67
2022-12-01T13:25:38.182Z,60.53
2022-12-01T13:30:39.856Z,51.80
2022-12-01T13:35:41.517Z,63.20
2022-12-01T13:40:43.165Z,65.72
2022-12-01T13:45:44.966Z,53.50
2022-12-01T13:51:03.648Z,56.60
2022-12-01T13:56:08.430Z,53.45
2022-12-01T14:01:23.123Z,49.20
2022-12-01T14:06:30.801Z,57.88
2022-12-01T14:11:34.016Z,59.75
2022-12-01T14:16:50.906Z,49.92
2022-12-01T14:21:52.641Z,63.97
2022-12-01T14:26:54.866Z,51.50
2022-12-01T14:32:02.386Z,59.90
2022-12-01T14:37:11.761Z,57.15
2022-12-01T14:42:40.036Z,58.38
2022-12-01T14:47:49.877Z,57.78
2022-12-01T14:53:19.847Z,56.17
2022-12-01T14:58:24.350Z,56.50
2022-12-01T15:03:32.135Z,65.05
2022-12-01T15:08:53.280Z,65.38
2022-12-01T15:13:57.927Z,66.57
2022-12-01T15:18:59.552Z,60.83
2022-12-01T15:24:02.448Z,58.83
2022-12-01T15:29:45.543Z,51.88
2022-12-01T15:34:49.703Z,58.53
2022-12-01T15:40:00.816Z,61.55
2022-12-01T15:45:16.742Z,52.45
2022-12-01T15:50:44.490Z,53.35
2022-12-01T15:55:51.796Z,55.65
2022-12-01T16:01:11.464Z,47.85
2022-12-01T16:06:13.163Z,48.17
2022-12-01T16:11:17.689Z,56.47
2022-12-01T16:16:28.788Z,57.78
2022-12-01T16:22:11.938Z,46.22
2022-12-01T16:27:18.500Z,52.35
2022-12-01T16:32:23.466Z,54.30
2022-12-01T16:37:26.555Z,45.28
2022-12-01T16:42:28.222Z,46.30
2022-12-01T16:47:31.724Z,44.60
2022-12-01T16:52:44.123Z,48.78
2022-12-01T16:57:46.483Z,51.88
2022-12-01T17:02:48.198Z,46.15
2022-12-01T17:07:50.360Z,43.17
2022-12-01T17:12:52.159Z,43.65
2022-12-01T17:17:53.837Z,48.85
2022-12-01T17:22:55.676Z,52.53
2022-12-01T17:27:57.343Z,52.53
2022-12-01T17:32:58.988Z,49.40
2022-12-01T17:38:00.630Z,52.70
2022-12-01T17:43:02.257Z,51.80
2022-12-01T17:48:04.053Z,51.85
2022-12-01T17:53:05.740Z,46.67
2022-12-01T17:58:07.357Z,46.13
2022-12-01T18:03:09.031Z,51.95
2022-12-01T18:08:10.808Z,51.10
2022-12-01T18:13:12.433Z,51.75
2022-12-01T18:18:14.064Z,47.90
2022-12-01T18:23:15.743Z,42.22
2022-12-01T18:28:17.529Z,58.15
2022-12-01T18:33:20.961Z,43.55
2022-12-01T18:38:24.918Z,54.17
2022-12-01T18:43:28.755Z,52.10
2022-12-01T18:48:30.949Z,51.05
2022-12-01T18:53:32.993Z,48.92
2022-12-01T18:58:35.148Z,48.42
2022-12-01T19:03:36.946Z,50.20
2022-12-01T19:08:39.511Z,51.67
2022-12-01T19:13:42.558Z,51.50
2022-12-01T19:18:44.395Z,53.65
2022-12-01T19:23:46.943Z,54.50
2022-12-01T19:28:49.004Z,50.05
2022-12-01T19:33:53.001Z,53.95
2022-12-01T19:38:57.604Z,53.53
2022-12-01T19:43:59.946Z,45.75
2022-12-01T19:49:02.113Z,53.80
2022-12-01T19:54:05.356Z,47.15
2022-12-01T19:59:08.014Z,57.55
2022-12-01T20:04:09.651Z,48.47
2022-12-01T20:09:11.471Z,56.05
2022-12-01T20:14:13.209Z,46.47
2022-12-01T20:19:15.120Z,43.47
2022-12-01T20:24:19.915Z,51.67
2022-12-01T20:29:24.188Z,50.10
2022-12-01T20:34:36.129Z,48.95
2022-12-01T20:39:41.325Z,55.50
2022-12-01T20:44:43.760Z,49.50
2022-12-01T20:49:45.688Z,49.50
2022-12-01T20:54:47.489Z,52.50
2022-12-01T20:59:49.236Z,51.80
2022-12-01T21:04:56.391Z,54.55
2022-12-01T21:10:00.860Z,48.72
2022-12-01T21:15:05.500Z,50.95
2022-12-01T21:20:40.597Z,49.00
2022-12-01T21:25:42.986Z,43.25
2022-12-01T21:30:46.207Z,52.85
2022-12-01T21:35:51.408Z,50.78
2022-12-01T21:40:53.297Z,50.13
2022-12-01T21:46:11.290Z,43.25
2022-12-01T21:51:19.533Z,47.88
2022-12-01T21:56:25.901Z,46.20
2022-12-01T22:01:32.316Z,50.03
2022-12-01T22:06:46.669Z,49.65
2022-12-01T22:11:52.869Z,47.65
2022-12-01T22:17:20.940Z,39.88
2022-12-01T22:22:25.769Z,51.63
2022-12-01T22:27:28.954Z,52.75
2022-12-01T22:32:54.212Z,49.88
2022-12-01T22:38:20.719Z,51.70
2022-12-01T22:43:32.659Z,48.25
2022-12-01T22:48:46.444Z,54.53
2022-12-01T22:53:48.806Z,51.40
2022-12-01T22:58:50.432Z,55.92
2022-12-01T23:04:08.122Z,45.85
2022-12-01T23:09:13.649Z,47.20
2022-12-01T23:14:18.740Z,47.22
2022-12-01T23:19:20.364Z,46.42
2022-12-01T23:24:22.035Z,53.80
2022-12-01T23:29:23.856Z,51.67
2022-12-01T23:34:25.693Z,50.63
2022-12-01T23:39:32.522Z,44.45
2022-12-01T23:44:42.210Z,47.95
2022-12-01T23:49:45.295Z,46.08
2022-12-01T23:54:47.008Z,51.42
2022-12-01T23:59:49.688Z,52.08
